createdAt,value
2018-04-16T00:00:18.294Z,0
2018-04-16T00:00:58.706Z,0
2018-04-16T00:01:39.076Z,0
2018-04-16T00:02:19.469Z,0
2018-04-16T00:02:59.863Z,0
2018-04-16T00:03:40.273Z,0
2018-04-16T00:04:20.712Z,0
2018-04-16T00:05:01.106Z,0
2018-04-16T00:05:41.424Z,0
2018-04-16T00:06:21.894Z,0
2018-04-16T00:07:02.234Z,0
2018-04-16T00:07:42.610Z,0
2018-04-16T00:08:23.024Z,0
2018-04-16T00:09:03.466Z,0
2018-04-16T00:09:43.773Z,0
2018-04-16T00:10:24.176Z,0
2018-04-16T00:11:04.597Z,0
2018-04-16T00:11:45.051Z,0
2018-04-16T00:12:25.440Z,0
2018-04-16T00:14:42.932Z,0
2018-04-16T00:15:23.353Z,0
2018-04-16T00:16:03.767Z,0
2018-04-16T00:16:44.114Z,0
2018-04-16T00:17:24.583Z,0
2018-04-16T00:18:04.944Z,0
2018-04-16T00:18:45.295Z,0
2018-04-16T00:19:25.725Z,0
2018-04-16T00:21:53.367Z,0
2018-04-16T00:22:33.732Z,0
2018-04-16T00:23:14.149Z,0
2018-04-16T00:23:54.628Z,0
2018-04-16T00:24:34.969Z,0
2018-04-16T00:25:15.361Z,0
2018-04-16T00:25:55.691Z,0
2018-04-16T00:26:36.045Z,0
2018-04-16T00:27:16.507Z,0
2018-04-16T00:27:56.858Z,0
2018-04-16T00:28:37.212Z,0
2018-04-16T00:29:17.644Z,0
2018-04-16T00:29:58.051Z,0
2018-04-16T00:30:38.409Z,0
2018-04-16T00:31:18.792Z,0
2018-04-16T00:31:59.192Z,0
2018-04-16T00:32:39.558Z,0
2018-04-16T00:33:19.942Z,0
2018-04-16T00:34:00.363Z,0
2018-04-16T00:34:40.732Z,0
2018-04-16T00:35:21.138Z,0
2018-04-16T00:36:01.470Z,0
2018-04-16T00:36:41.876Z,0
2018-04-16T00:37:22.377Z,0
2018-04-16T00:38:02.725Z,0
2018-04-16T00:38:43.172Z,0
2018-04-16T00:39:23.465Z,0
2018-04-16T00:40:03.770Z,0
2018-04-16T00:40:44.251Z,0
2018-04-16T00:41:24.565Z,0
2018-04-16T00:42:05.045Z,0
2018-04-16T00:42:45.345Z,0
2018-04-16T00:43:25.779Z,0
2018-04-16T00:44:06.175Z,0
2018-04-16T00:44:46.511Z,0
2018-04-16T00:45:26.900Z,0
2018-04-16T00:46:07.381Z,0
2018-04-16T00:46:47.774Z,0
2018-04-16T00:47:28.176Z,0
2018-04-16T00:48:08.514Z,0
2018-04-16T00:48:48.914Z,0
2018-04-16T00:49:29.335Z,0
2018-04-16T00:50:09.725Z,0
2018-04-16T00:50:50.112Z,0
2018-04-16T00:51:30.640Z,0
2018-04-16T00:52:10.873Z,0
2018-04-16T00:52:51.270Z,0
2018-04-16T00:53:31.677Z,0
2018-04-16T00:54:12.026Z,0
2018-04-16T00:54:52.436Z,0
2018-04-16T00:55:32.793Z,0
2018-04-16T00:56:13.208Z,0
2018-04-16T00:56:53.525Z,0
2018-04-16T00:57:33.928Z,0
2018-04-16T00:58:14.288Z,0
2018-04-16T00:58:54.711Z,0
2018-04-16T00:59:35.091Z,0
2018-04-16T01:00:15.533Z,0
2018-04-16T01:00:55.996Z,0
2018-04-16T01:01:36.434Z,0
2018-04-16T01:02:16.794Z,0
2018-04-16T01:02:57.226Z,0
2018-04-16T01:03:37.578Z,0
2018-04-16T01:04:17.923Z,0
2018-04-16T01:04:58.369Z,0
2018-04-16T01:05:38.709Z,0
2018-04-16T01:06:19.145Z,0
2018-04-16T01:06:59.480Z,0
2018-04-16T01:07:39.862Z,0
2018-04-16T01:08:20.239Z,0
2018-04-16T01:09:00.697Z,0
2018-04-16T01:09:41.034Z,0
2018-04-16T01:10:21.524Z,0
2018-04-16T01:11:01.858Z,0
2018-04-16T01:11:42.218Z,0
2018-04-16T01:12:22.581Z,0
2018-04-16T01:13:03.004Z,0
2018-04-16T01:13:43.406Z,0
2018-04-16T01:14:23.826Z,0
2018-04-16T01:15:04.203Z,0
2018-04-16T01:15:44.545Z,0
2018-04-16T01:16:25.008Z,0
2018-04-16T01:17:05.334Z,0
2018-04-16T01:17:45.743Z,0
2018-04-16T01:18:26.169Z,0
2018-04-16T01:19:06.518Z,0
2018-04-16T01:19:46.970Z,0
2018-04-16T01:20:27.297Z,0
2018-04-16T01:21:07.726Z,0
2018-04-16T01:21:48.135Z,0
2018-04-16T01:22:28.495Z,0
2018-04-16T01:23:08.919Z,0
2018-04-16T01:23:49.341Z,0
2018-04-16T01:24:29.716Z,0
2018-04-16T01:25:10.108Z,0
2018-04-16T01:25:50.514Z,0
2018-04-16T01:26:30.936Z,0
2018-04-16T01:27:11.245Z,0
2018-04-16T01:27:51.674Z,0
2018-04-16T01:28:32.061Z,0
2018-04-16T01:29:12.427Z,0
2018-04-16T01:29:52.850Z,0
2018-04-16T01:30:33.210Z,0
2018-04-16T01:31:13.610Z,0
2018-04-16T01:31:54.021Z,0
2018-04-16T01:32:34.460Z,0
2018-04-16T01:33:14.817Z,0
2018-04-16T01:33:55.195Z,0
2018-04-16T01:34:35.610Z,0
2018-04-16T01:35:16.044Z,0
2018-04-16T01:35:56.441Z,0
2018-04-16T01:36:36.826Z,0
2018-04-16T01:37:17.283Z,0
2018-04-16T01:37:57.659Z,0
2018-04-16T01:38:38.000Z,0
2018-04-16T01:39:18.396Z,0
2018-04-16T01:39:58.771Z,0
2018-04-16T01:40:39.182Z,0
2018-04-16T01:41:19.584Z,0
2018-04-16T01:41:59.972Z,0
2018-04-16T01:42:40.403Z,0
2018-04-16T01:43:20.844Z,0
2018-04-16T01:44:01.207Z,0
2018-04-16T01:44:41.596Z,0
2018-04-16T01:45:21.977Z,0
2018-04-16T01:46:02.424Z,0
2018-04-16T01:46:42.780Z,0
2018-04-16T01:47:23.135Z,0
2018-04-16T01:48:03.548Z,0
2018-04-16T01:48:43.985Z,0
2018-04-16T01:49:24.320Z,0
2018-04-16T01:50:04.719Z,0
2018-04-16T01:50:45.150Z,0
2018-04-16T01:51:25.537Z,0
2018-04-16T01:52:05.858Z,0
2018-04-16T01:52:46.267Z,0
2018-04-16T01:53:26.683Z,0
2018-04-16T01:54:07.035Z,0
2018-04-16T01:54:47.468Z,0
2018-04-16T01:55:27.861Z,0
2018-04-16T01:56:08.190Z,0
2018-04-16T01:56:48.647Z,0
2018-04-16T01:57:29.054Z,0
2018-04-16T01:58:09.412Z,0
2018-04-16T01:58:49.783Z,0
2018-04-16T01:59:30.186Z,0
2018-04-16T02:00:10.632Z,0
2018-04-16T02:00:51.031Z,0
2018-04-16T02:01:31.439Z,0
2018-04-16T02:02:11.857Z,0
2018-04-16T02:02:52.265Z,0
2018-04-16T02:03:32.627Z,0
2018-04-16T02:04:12.994Z,0
2018-04-16T02:04:53.387Z,0
2018-04-16T02:05:33.808Z,0
2018-04-16T02:06:16.274Z,0
2018-04-16T02:06:56.188Z,0
2018-04-16T02:07:36.723Z,0
2018-04-16T02:08:17.058Z,0
2018-04-16T02:08:57.457Z,0
2018-04-16T02:09:37.828Z,0
2018-04-16T02:10:18.275Z,0
2018-04-16T02:10:58.659Z,0
2018-04-16T02:11:38.995Z,0
2018-04-16T02:12:19.417Z,0
2018-04-16T02:12:59.790Z,0
2018-04-16T02:13:40.169Z,0
2018-04-16T02:14:20.603Z,0
2018-04-16T02:15:00.972Z,0
2018-04-16T02:15:41.423Z,0
2018-04-16T02:16:21.784Z,0
2018-04-16T02:17:02.177Z,0
2018-04-16T02:17:42.605Z,0
2018-04-16T02:18:22.986Z,0
2018-04-16T02:19:03.462Z,0
2018-04-16T02:19:43.845Z,0
2018-04-16T02:20:24.201Z,0
2018-04-16T02:21:04.575Z,0
2018-04-16T02:21:44.949Z,0
2018-04-16T02:22:25.354Z,0
2018-04-16T02:23:05.709Z,0
2018-04-16T02:23:46.095Z,0
2018-04-16T02:24:26.591Z,0
2018-04-16T02:25:06.904Z,0
2018-04-16T02:25:47.284Z,0
2018-04-16T02:26:27.710Z,0
2018-04-16T02:27:08.075Z,0
2018-04-16T02:27:48.458Z,0
2018-04-16T02:30:21.224Z,0
2018-04-16T02:31:01.622Z,0
2018-04-16T02:31:41.985Z,0
2018-04-16T02:32:22.355Z,0
2018-04-16T02:33:02.783Z,0
2018-04-16T02:33:43.153Z,0
2018-04-16T02:34:23.529Z,0
2018-04-16T02:35:03.960Z,0
2018-04-16T02:35:44.351Z,0
2018-04-16T02:36:24.747Z,0
2018-04-16T02:37:05.106Z,0
2018-04-16T02:37:45.529Z,0
2018-04-16T02:38:25.942Z,0
2018-04-16T02:39:06.360Z,0
2018-04-16T02:39:46.750Z,0
2018-04-16T02:40:27.092Z,0
2018-04-16T02:41:07.471Z,0
2018-04-16T02:41:47.959Z,0
2018-04-16T02:42:28.275Z,0
2018-04-16T02:43:08.633Z,0
2018-04-16T02:43:49.034Z,0
2018-04-16T02:44:29.454Z,0
2018-04-16T02:45:09.927Z,0
2018-04-16T02:45:50.243Z,0
2018-04-16T02:46:30.628Z,0
2018-04-16T02:47:11.001Z,0
2018-04-16T02:49:38.685Z,0
2018-04-16T02:50:19.079Z,0
2018-04-16T02:50:59.473Z,0
2018-04-16T02:51:39.911Z,0
2018-04-16T02:52:20.360Z,0
2018-04-16T02:53:00.745Z,0
2018-04-16T02:53:41.129Z,0
2018-04-16T02:54:21.552Z,0
2018-04-16T02:55:01.940Z,0
2018-04-16T02:55:42.303Z,0
2018-04-16T02:56:22.766Z,0
2018-04-16T02:57:03.125Z,0
2018-04-16T02:57:43.481Z,0
2018-04-16T02:58:23.898Z,0
2018-04-16T02:59:04.251Z,0
2018-04-16T02:59:44.695Z,0
2018-04-16T03:00:25.186Z,0
2018-04-16T03:01:05.489Z,0
2018-04-16T03:01:45.894Z,0
2018-04-16T03:04:18.654Z,0
2018-04-16T03:04:59.012Z,0
2018-04-16T03:05:39.401Z,0
2018-04-16T03:06:19.870Z,0
2018-04-16T03:07:00.198Z,0
2018-04-16T03:07:40.613Z,0
2018-04-16T03:08:21.011Z,0
2018-04-16T03:09:01.399Z,0
2018-04-16T03:09:41.792Z,0
2018-04-16T03:10:22.188Z,0
2018-04-16T03:11:02.579Z,0
2018-04-16T03:11:42.959Z,0
2018-04-16T03:12:23.397Z,0
2018-04-16T03:13:03.728Z,0
2018-04-16T03:13:44.190Z,0
2018-04-16T03:14:24.506Z,0
2018-04-16T03:15:04.889Z,0
2018-04-16T03:15:45.295Z,0
2018-04-16T03:16:25.672Z,0
2018-04-16T03:17:06.109Z,0
2018-04-16T03:17:46.487Z,0
2018-04-16T03:18:26.870Z,0
2018-04-16T03:19:07.267Z,0
2018-04-16T03:19:47.673Z,0
2018-04-16T03:20:28.164Z,0
2018-04-16T03:21:08.578Z,0
2018-04-16T03:21:48.895Z,0
2018-04-16T03:22:29.291Z,0
2018-04-16T03:23:09.708Z,0
2018-04-16T03:23:50.140Z,0
2018-04-16T03:24:30.533Z,0
2018-04-16T03:25:10.902Z,0
2018-04-16T03:25:51.287Z,0
2018-04-16T03:26:31.664Z,0
2018-04-16T03:27:12.045Z,0
2018-04-16T03:27:52.440Z,0
2018-04-16T03:28:32.869Z,0
2018-04-16T03:29:13.304Z,0
2018-04-16T03:29:53.617Z,0
2018-04-16T03:30:34.056Z,0
2018-04-16T03:31:14.478Z,0
2018-04-16T03:31:54.839Z,0
2018-04-16T03:32:35.219Z,0
2018-04-16T03:33:15.703Z,0
2018-04-16T03:33:55.987Z,0
2018-04-16T03:34:36.359Z,0
2018-04-16T03:35:16.801Z,0
2018-04-16T03:35:57.232Z,0
2018-04-16T03:36:37.655Z,0
2018-04-16T03:37:17.988Z,0
2018-04-16T03:37:58.358Z,0
2018-04-16T03:38:38.757Z,0
2018-04-16T03:39:19.220Z,0
2018-04-16T03:39:59.594Z,0
2018-04-16T03:40:40.047Z,0
2018-04-16T03:41:20.419Z,0
2018-04-16T03:42:00.821Z,0
2018-04-16T03:42:41.286Z,0
2018-04-16T03:43:21.681Z,0
2018-04-16T03:44:02.012Z,0
2018-04-16T03:44:42.413Z,0
2018-04-16T03:45:22.877Z,0
2018-04-16T03:46:03.270Z,0
2018-04-16T03:46:43.651Z,0
2018-04-16T03:47:24.049Z,0
2018-04-16T03:48:04.482Z,0
2018-04-16T03:48:44.968Z,0
2018-04-16T03:49:25.352Z,0
2018-04-16T03:50:05.807Z,0
2018-04-16T03:50:46.223Z,0
2018-04-16T03:51:26.694Z,0
2018-04-16T03:52:07.038Z,0
2018-04-16T03:52:47.391Z,0
2018-04-16T03:53:27.835Z,0
2018-04-16T03:54:08.217Z,0
2018-04-16T03:54:48.532Z,0
2018-04-16T03:55:28.978Z,0
2018-04-16T03:56:09.395Z,0
2018-04-16T03:56:49.695Z,0
2018-04-16T03:57:30.119Z,0
2018-04-16T03:58:10.512Z,0
2018-04-16T03:58:50.913Z,0
2018-04-16T03:59:31.352Z,0
2018-04-16T04:00:11.798Z,0
2018-04-16T04:00:52.157Z,0
2018-04-16T04:01:32.472Z,0
2018-04-16T04:02:12.844Z,0
2018-04-16T04:02:53.290Z,0
2018-04-16T04:41:07.616Z,0
2018-04-16T04:41:48.031Z,0
2018-04-16T04:42:28.386Z,0
2018-04-16T04:43:08.771Z,0
2018-04-16T04:43:49.139Z,0
2018-04-16T04:44:29.513Z,0
2018-04-16T04:48:15.406Z,0
2018-04-16T04:48:55.748Z,0
2018-04-16T04:49:36.153Z,0
2018-04-16T04:50:16.519Z,0
2018-04-16T04:50:56.937Z,0
2018-04-16T04:51:37.288Z,0
2018-04-16T04:52:17.735Z,0
2018-04-16T04:52:58.162Z,0
2018-04-16T04:53:38.517Z,0
2018-04-16T04:54:18.900Z,0
2018-04-16T04:54:59.409Z,0
2018-04-16T04:55:39.851Z,0
2018-04-16T04:56:20.180Z,0
2018-04-16T04:57:00.569Z,0
2018-04-16T04:57:40.996Z,0
2018-04-16T04:58:21.334Z,0
2018-04-16T04:59:01.760Z,0
2018-04-16T04:59:42.173Z,0
2018-04-16T05:00:22.613Z,0
2018-04-16T05:01:03.068Z,5
2018-04-16T05:01:43.406Z,5
2018-04-16T05:02:23.819Z,5
2018-04-16T05:03:04.256Z,10
2018-04-16T05:03:44.679Z,10
2018-04-16T05:04:25.132Z,10
2018-04-16T05:05:05.497Z,10
2018-04-16T05:05:45.961Z,5
2018-04-16T05:06:26.335Z,5
2018-04-16T05:07:06.735Z,5
2018-04-16T05:07:47.140Z,10
2018-04-16T05:08:27.561Z,10
2018-04-16T05:09:08.057Z,10
2018-04-16T05:09:48.458Z,15
2018-04-16T05:10:28.867Z,10
2018-04-16T05:11:09.277Z,5
2018-04-16T05:11:49.702Z,10
2018-04-16T05:14:02.677Z,10
2018-04-16T05:14:43.119Z,20
2018-04-16T05:15:23.494Z,30
2018-04-16T05:16:03.909Z,35
2018-04-16T05:16:44.288Z,35
2018-04-16T05:17:24.714Z,35
2018-04-16T05:18:05.141Z,40
2018-04-16T05:18:45.590Z,30
2018-04-16T05:19:25.944Z,25
2018-04-16T05:20:06.398Z,10
2018-04-16T05:20:46.763Z,10
2018-04-16T05:21:27.140Z,10
2018-04-16T05:22:07.561Z,10
2018-04-16T05:22:48.005Z,10
2018-04-16T05:23:28.419Z,15
2018-04-16T05:24:08.850Z,15
2018-04-16T05:24:49.229Z,15
2018-04-16T05:25:29.642Z,15
2018-04-16T05:26:10.054Z,15
2018-04-16T05:26:50.435Z,15
2018-04-16T05:27:30.809Z,15
2018-04-16T05:28:11.249Z,15
2018-04-16T05:28:51.598Z,15
2018-04-16T05:29:31.983Z,15
2018-04-16T05:30:12.386Z,15
2018-04-16T05:30:52.759Z,15
2018-04-16T05:31:33.135Z,15
2018-04-16T05:32:13.581Z,15
2018-04-16T05:32:54.098Z,20
2018-04-16T05:33:34.488Z,20
2018-04-16T05:34:14.942Z,20
2018-04-16T05:34:55.348Z,20
2018-04-16T05:35:35.751Z,20
2018-04-16T05:36:16.182Z,20
2018-04-16T05:36:56.560Z,20
2018-04-16T05:37:37.002Z,20
2018-04-16T05:38:17.464Z,20
2018-04-16T05:38:57.889Z,25
2018-04-16T05:39:38.261Z,25
2018-04-16T05:40:18.608Z,25
2018-04-16T05:40:59.052Z,25
2018-04-16T05:41:39.489Z,30
2018-04-16T05:42:19.896Z,30
2018-04-16T05:43:00.277Z,30
2018-04-16T05:43:40.724Z,35
2018-04-16T05:46:15.528Z,40
2018-04-16T05:46:55.868Z,40
2018-04-16T05:47:37.029Z,45
2018-04-16T05:48:17.551Z,50
2018-04-16T05:48:57.954Z,50
2018-04-16T05:49:38.344Z,55
2018-04-16T05:50:18.779Z,60
2018-04-16T05:50:59.102Z,70
2018-04-16T05:51:39.500Z,125
2018-04-16T05:52:19.815Z,145
2018-04-16T05:53:00.206Z,230
2018-04-16T05:53:40.704Z,270
2018-04-16T05:54:21.074Z,350
2018-04-16T05:55:01.506Z,415
2018-04-16T05:55:41.874Z,425
2018-04-16T05:56:22.499Z,190
2018-04-16T05:57:02.992Z,90
2018-04-16T05:57:43.304Z,90
2018-04-16T05:58:23.800Z,290
2018-04-16T05:59:04.238Z,430
2018-04-16T05:59:44.651Z,430
2018-04-16T06:00:25.140Z,360
2018-04-16T06:01:05.478Z,165
2018-04-16T06:01:45.874Z,240
2018-04-16T06:02:26.369Z,115
2018-04-16T06:03:06.730Z,120
2018-04-16T06:03:47.107Z,145
2018-04-16T06:04:27.675Z,345
2018-04-16T06:05:08.035Z,495
2018-04-16T06:05:49.156Z,440
2018-04-16T06:06:29.562Z,320
2018-04-16T06:07:09.976Z,285
2018-04-16T06:07:50.311Z,410
2018-04-16T06:08:30.727Z,220
2018-04-16T06:09:11.141Z,180
2018-04-16T06:09:51.615Z,110
2018-04-16T06:10:32.019Z,95
2018-04-16T06:11:12.488Z,85
2018-04-16T06:11:52.970Z,85
2018-04-16T06:12:33.475Z,80
2018-04-16T06:13:14.266Z,85
2018-04-16T06:13:54.513Z,85
2018-04-16T06:14:35.266Z,90
2018-04-16T06:15:15.714Z,95
2018-04-16T06:15:56.738Z,95
2018-04-16T06:16:37.817Z,95
2018-04-16T06:17:18.721Z,115
2018-04-16T06:17:59.175Z,465
2018-04-16T06:18:40.031Z,510
2018-04-16T06:19:20.722Z,155
2018-04-16T06:20:01.333Z,330
2018-04-16T06:20:41.807Z,445
2018-04-16T06:21:22.540Z,130
2018-04-16T06:22:03.736Z,110
2018-04-16T06:22:44.220Z,605
2018-04-16T06:23:24.626Z,530
2018-04-16T06:24:05.624Z,345
2018-04-16T06:24:47.462Z,125
2018-04-16T06:25:27.462Z,115
2018-04-16T06:26:08.220Z,360
2018-04-16T06:26:48.938Z,500
2018-04-16T06:27:29.783Z,545
2018-04-16T06:28:10.137Z,115
2018-04-16T06:28:51.489Z,145
2018-04-16T06:29:31.424Z,200
2018-04-16T06:30:11.809Z,725
2018-04-16T06:30:52.222Z,270
2018-04-16T06:31:32.605Z,305
2018-04-16T06:32:13.108Z,605
2018-04-16T06:32:54.470Z,695
2018-04-16T06:33:34.228Z,435
2018-04-16T06:34:16.781Z,125
2018-04-16T06:34:59.334Z,105
2018-04-16T06:35:39.773Z,90
2018-04-16T06:36:20.221Z,90
2018-04-16T06:37:00.693Z,100
2018-04-16T06:37:42.002Z,400
2018-04-16T06:38:21.980Z,600
2018-04-16T06:39:02.279Z,175
2018-04-16T06:39:43.280Z,365
2018-04-16T06:40:24.243Z,235
2018-04-16T06:41:04.645Z,155
2018-04-16T06:41:45.261Z,105
2018-04-16T06:42:25.934Z,65
2018-04-16T06:43:06.243Z,120
2018-04-16T06:43:46.731Z,65
2018-04-16T06:44:27.260Z,75
2018-04-16T06:45:07.745Z,85
2018-04-16T06:45:48.156Z,125
2018-04-16T06:46:28.811Z,430
2018-04-16T06:47:09.226Z,180
2018-04-16T06:47:49.725Z,105
2018-04-16T06:48:31.200Z,90
2018-04-16T06:49:11.623Z,70
2018-04-16T06:49:52.105Z,65
2018-04-16T06:50:32.444Z,55
2018-04-16T06:51:12.952Z,50
2018-04-16T06:51:53.395Z,50
2018-04-16T06:52:33.739Z,55
2018-04-16T06:53:14.398Z,70
2018-04-16T06:53:54.773Z,70
2018-04-16T06:54:35.480Z,65
2018-04-16T06:55:15.578Z,65
2018-04-16T06:55:56.033Z,65
2018-04-16T06:56:36.608Z,65
2018-04-16T06:57:17.197Z,65
2018-04-16T06:57:58.016Z,65
2018-04-16T06:58:38.071Z,60
2018-04-16T06:59:18.549Z,55
2018-04-16T06:59:59.300Z,50
2018-04-16T07:00:39.697Z,45
2018-04-16T07:01:20.142Z,45
2018-04-16T07:02:00.551Z,40
2018-04-16T07:02:40.953Z,40
2018-04-16T07:03:21.388Z,35
2018-04-16T07:04:02.129Z,35
2018-04-16T07:04:42.595Z,35
2018-04-16T07:05:23.585Z,30
2018-04-16T07:06:03.817Z,30
2018-04-16T07:06:45.189Z,30
2018-04-16T07:07:25.755Z,30
2018-04-16T07:08:06.818Z,35
2018-04-16T07:08:47.457Z,35
2018-04-16T07:09:27.949Z,40
2018-04-16T07:10:09.072Z,40
2018-04-16T07:10:48.910Z,40
2018-04-16T07:11:30.152Z,45
2018-04-16T07:12:10.272Z,45
2018-04-16T07:12:51.020Z,45
2018-04-16T07:13:31.749Z,45
2018-04-16T07:14:12.195Z,45
2018-04-16T07:14:52.530Z,45
2018-04-16T07:15:32.946Z,50
2018-04-16T07:16:13.304Z,60
2018-04-16T07:16:53.737Z,70
2018-04-16T07:17:34.444Z,160
2018-04-16T07:18:15.041Z,160
2018-04-16T07:18:55.623Z,255
2018-04-16T07:19:36.014Z,225
2018-04-16T07:20:16.473Z,200
2018-04-16T07:20:56.850Z,195
2018-04-16T07:21:37.254Z,105
2018-04-16T07:22:17.664Z,140
2018-04-16T07:22:59.396Z,155
2018-04-16T07:23:39.820Z,130
2018-04-16T07:24:20.258Z,175
2018-04-16T07:25:00.661Z,160
2018-04-16T07:25:41.090Z,115
2018-04-16T07:26:21.438Z,150
2018-04-16T07:27:01.879Z,165
2018-04-16T07:27:42.308Z,180
2018-04-16T07:28:22.747Z,180
2018-04-16T07:29:03.227Z,180
2018-04-16T07:29:43.666Z,180
2018-04-16T07:30:24.146Z,190
2018-04-16T07:31:04.460Z,195
2018-04-16T07:31:45.010Z,190
2018-04-16T07:32:25.542Z,190
2018-04-16T07:33:07.044Z,180
2018-04-16T07:33:47.531Z,165
2018-04-16T07:34:28.305Z,155
2018-04-16T07:35:08.763Z,150
2018-04-16T07:35:49.285Z,150
2018-04-16T07:36:29.784Z,150
2018-04-16T07:37:10.225Z,140
2018-04-16T07:37:51.056Z,140
2018-04-16T07:38:32.976Z,135
2018-04-16T07:39:13.714Z,155
2018-04-16T07:39:55.873Z,165
2018-04-16T07:40:35.175Z,180
2018-04-16T07:41:15.847Z,185
2018-04-16T07:41:56.321Z,170
2018-04-16T07:42:36.784Z,150
2018-04-16T07:43:17.336Z,160
2018-04-16T07:43:57.777Z,155
2018-04-16T07:44:38.297Z,160
2018-04-16T07:45:18.847Z,165
2018-04-16T07:45:59.455Z,160
2018-04-16T07:46:39.972Z,155
2018-04-16T07:47:20.332Z,150
2018-04-16T07:48:00.740Z,140
2018-04-16T07:48:41.328Z,140
2018-04-16T07:49:22.220Z,130
2018-04-16T07:50:02.648Z,130
2018-04-16T07:50:43.042Z,130
2018-04-16T07:51:23.540Z,115
2018-04-16T07:52:03.870Z,120
2018-04-16T07:52:44.331Z,110
2018-04-16T07:53:24.910Z,105
2018-04-16T07:54:05.149Z,110
2018-04-16T07:54:45.534Z,120
2018-04-16T07:55:26.152Z,110
2018-04-16T07:56:06.789Z,115
2018-04-16T07:56:47.323Z,100
2018-04-16T07:57:28.547Z,95
2018-04-16T07:58:08.161Z,100
2018-04-16T07:58:48.683Z,95
2018-04-16T07:59:28.985Z,95
2018-04-16T08:00:09.471Z,110
2018-04-16T08:00:49.964Z,120
2018-04-16T08:01:30.697Z,115
2018-04-16T08:02:10.897Z,110
2018-04-16T08:02:51.306Z,105
2018-04-16T08:03:31.731Z,105
2018-04-16T08:04:12.178Z,100
2018-04-16T08:04:52.576Z,100
2018-04-16T08:05:33.241Z,95
2018-04-16T08:06:13.679Z,90
2018-04-16T08:06:54.114Z,95
2018-04-16T08:07:35.703Z,95
2018-04-16T08:08:16.456Z,90
2018-04-16T08:08:56.922Z,90
2018-04-16T08:09:37.310Z,90
2018-04-16T08:10:17.802Z,95
2018-04-16T08:10:58.169Z,90
2018-04-16T08:11:38.628Z,90
2018-04-16T08:12:19.075Z,90
2018-04-16T08:12:59.507Z,90
2018-04-16T08:13:40.014Z,90
2018-04-16T08:14:20.369Z,100
2018-04-16T08:15:00.829Z,95
2018-04-16T08:15:41.174Z,95
2018-04-16T08:16:21.568Z,95
2018-04-16T08:17:02.058Z,100
2018-04-16T08:17:42.432Z,120
2018-04-16T08:18:22.969Z,120
2018-04-16T08:19:12.409Z,120
2018-04-16T08:19:50.993Z,110
2018-04-16T08:20:31.791Z,115
2018-04-16T08:21:12.344Z,105
2018-04-16T08:21:53.326Z,95
2018-04-16T08:22:33.779Z,90
2018-04-16T08:23:14.264Z,100
2018-04-16T08:23:54.714Z,105
2018-04-16T08:24:35.101Z,95
2018-04-16T08:25:15.511Z,110
2018-04-16T08:25:55.972Z,95
2018-04-16T08:26:36.360Z,105
2018-04-16T08:27:16.919Z,115
2018-04-16T08:27:57.255Z,110
2018-04-16T08:28:38.058Z,100
2018-04-16T08:29:18.298Z,95
2018-04-16T08:29:58.726Z,100
2018-04-16T08:30:39.366Z,105
2018-04-16T08:31:19.816Z,105
2018-04-16T08:32:00.577Z,125
2018-04-16T08:32:40.967Z,130
2018-04-16T08:33:21.460Z,140
2018-04-16T08:34:03.162Z,130
2018-04-16T08:34:43.375Z,115
2018-04-16T08:35:23.864Z,110
2018-04-16T08:36:04.573Z,110
2018-04-16T08:36:44.937Z,115
2018-04-16T08:37:25.525Z,120
2018-04-16T08:38:05.927Z,105
2018-04-16T08:38:46.430Z,100
2018-04-16T08:39:26.814Z,95
2018-04-16T08:40:08.047Z,95
2018-04-16T08:40:48.145Z,90
2018-04-16T08:41:28.776Z,90
2018-04-16T08:42:09.186Z,90
2018-04-16T08:42:49.561Z,90
2018-04-16T08:43:30.145Z,100
2018-04-16T08:44:10.603Z,110
2018-04-16T08:44:50.993Z,115
2018-04-16T08:45:31.643Z,120
2018-04-16T08:46:11.984Z,125
2018-04-16T08:50:28.683Z,105
2018-04-16T08:51:09.407Z,100
2018-04-16T08:51:49.641Z,95
2018-04-16T08:52:30.556Z,100
2018-04-16T08:53:11.164Z,100
2018-04-16T08:53:52.055Z,95
2018-04-16T08:54:32.303Z,95
2018-04-16T08:55:12.981Z,95
2018-04-16T08:55:53.371Z,95
2018-04-16T08:56:33.815Z,100
2018-04-16T08:57:14.226Z,95
2018-04-16T08:57:54.648Z,95
2018-04-16T08:58:35.111Z,95
2018-04-16T08:59:15.994Z,90
2018-04-16T08:59:56.640Z,80
2018-04-16T09:00:38.644Z,80
2018-04-16T09:01:19.165Z,80
2018-04-16T09:01:59.550Z,80
2018-04-16T09:02:40.071Z,80
2018-04-16T09:03:20.428Z,75
2018-04-16T09:04:00.900Z,85
2018-04-16T09:04:41.458Z,90
2018-04-16T09:05:21.948Z,90
2018-04-16T09:06:02.323Z,95
2018-04-16T09:06:42.743Z,100
2018-04-16T09:07:23.120Z,105
2018-04-16T09:08:03.711Z,110
2018-04-16T09:08:44.131Z,110
2018-04-16T09:09:24.590Z,110
2018-04-16T09:10:04.955Z,115
2018-04-16T09:10:45.350Z,110
2018-04-16T09:11:25.771Z,110
2018-04-16T09:12:06.177Z,100
2018-04-16T09:12:46.602Z,95
2018-04-16T09:13:27.336Z,90
2018-04-16T09:14:07.678Z,90
2018-04-16T09:14:48.167Z,90
2018-04-16T09:15:28.651Z,90
2018-04-16T09:18:06.726Z,95
2018-04-16T09:18:47.253Z,95
2018-04-16T09:19:27.715Z,95
2018-04-16T09:20:08.194Z,95
2018-04-16T09:20:48.783Z,100
2018-04-16T09:21:29.222Z,100
2018-04-16T09:22:09.676Z,95
2018-04-16T09:22:50.196Z,95
2018-04-16T09:23:30.707Z,100
2018-04-16T09:24:11.106Z,85
2018-04-16T09:24:51.567Z,100
2018-04-16T09:25:32.031Z,90
2018-04-16T09:26:12.628Z,85
2018-04-16T09:26:53.047Z,105
2018-04-16T09:27:33.666Z,90
2018-04-16T09:28:13.945Z,100
2018-04-16T09:28:54.603Z,100
2018-04-16T09:29:35.297Z,100
2018-04-16T09:30:16.118Z,95
2018-04-16T09:30:57.709Z,75
2018-04-16T09:31:38.234Z,70
2018-04-16T09:32:18.819Z,70
2018-04-16T09:32:59.263Z,70
2018-04-16T09:33:39.654Z,75
2018-04-16T09:34:20.077Z,60
2018-04-16T09:35:00.508Z,55
2018-04-16T09:35:40.960Z,55
2018-04-16T09:36:21.376Z,60
2018-04-16T09:37:01.734Z,75
2018-04-16T09:37:42.179Z,80
2018-04-16T09:38:22.564Z,70
2018-04-16T09:39:03.034Z,70
2018-04-16T09:39:43.453Z,70
2018-04-16T09:40:24.194Z,75
2018-04-16T09:41:04.611Z,70
2018-04-16T09:43:22.421Z,70
2018-04-16T09:44:04.940Z,70
2018-04-16T09:44:48.508Z,70
2018-04-16T09:45:28.706Z,65
2018-04-16T09:46:09.572Z,60
2018-04-16T09:46:49.945Z,55
2018-04-16T09:47:30.483Z,55
2018-04-16T09:48:10.809Z,55
2018-04-16T09:48:51.231Z,55
2018-04-16T09:49:31.749Z,60
2018-04-16T09:50:12.127Z,60
2018-04-16T09:50:52.608Z,60
2018-04-16T09:51:32.980Z,60
2018-04-16T09:52:13.508Z,55
2018-04-16T09:52:53.954Z,55
2018-04-16T09:53:34.401Z,60
2018-04-16T09:54:15.485Z,55
2018-04-16T09:54:56.107Z,60
2018-04-16T09:55:36.640Z,65
2018-04-16T09:56:17.805Z,65
2018-04-16T09:56:57.819Z,70
2018-04-16T09:57:38.578Z,90
2018-04-16T09:58:20.522Z,85
2018-04-16T09:59:04.502Z,95
2018-04-16T09:59:44.990Z,100
2018-04-16T10:00:30.050Z,105
2018-04-16T10:01:11.425Z,100
2018-04-16T10:03:48.362Z,90
2018-04-16T10:41:57.805Z,90
2018-04-16T10:42:40.190Z,85
2018-04-16T10:43:22.521Z,95
2018-04-16T10:44:03.181Z,70
2018-04-16T10:44:44.763Z,65
2018-04-16T10:45:24.610Z,65
2018-04-16T10:46:05.335Z,60
2018-04-16T10:46:45.818Z,65
2018-04-16T10:47:28.897Z,85
2018-04-16T10:48:10.758Z,85
2018-04-16T10:48:51.436Z,80
2018-04-16T10:49:34.826Z,75
2018-04-16T10:50:21.179Z,70
2018-04-16T10:51:03.819Z,70
2018-04-16T10:51:45.276Z,70
2018-04-16T10:52:25.551Z,80
2018-04-16T10:53:06.181Z,85
2018-04-16T10:53:46.946Z,65
2018-04-16T10:54:27.911Z,90
2018-04-16T10:55:08.436Z,85
2018-04-16T10:55:48.959Z,85
2018-04-16T10:56:29.871Z,85
2018-04-16T10:57:10.566Z,80
2018-04-16T10:57:53.783Z,80
2018-04-16T11:01:40.279Z,60
2018-04-16T11:02:22.081Z,65
2018-04-16T11:03:03.565Z,60
2018-04-16T11:03:44.065Z,55
2018-04-16T11:04:25.535Z,55
2018-04-16T11:05:06.572Z,55
2018-04-16T11:05:46.875Z,55
2018-04-16T11:06:28.632Z,75
2018-04-16T11:07:08.579Z,80
2018-04-16T11:07:51.196Z,65
2018-04-16T11:08:31.155Z,55
2018-04-16T11:09:12.290Z,60
2018-04-16T11:09:53.263Z,85
2018-04-16T11:10:34.121Z,85
2018-04-16T11:11:15.706Z,65
2018-04-16T11:11:57.386Z,65
2018-04-16T11:12:38.058Z,60
2018-04-16T11:13:18.908Z,85
2018-04-16T11:13:59.582Z,85
2018-04-16T11:14:41.015Z,65
2018-04-16T11:15:22.071Z,70
2018-04-16T11:16:02.475Z,90
2018-04-16T11:16:43.086Z,95
2018-04-16T11:17:23.725Z,95
2018-04-16T11:18:05.379Z,100
2018-04-16T11:18:45.623Z,100
2018-04-16T11:19:27.080Z,85
2018-04-16T11:20:07.326Z,80
2018-04-16T11:20:48.060Z,70
2018-04-16T11:21:29.183Z,70
2018-04-16T11:22:09.870Z,85
2018-04-16T11:22:51.132Z,90
2018-04-16T11:23:30.941Z,90
2018-04-16T11:24:12.259Z,90
2018-04-16T11:24:54.048Z,90
2018-04-16T11:25:33.890Z,90